createdAt,value
2023-01-29T00:01:30.997Z,32.95
2023-01-29T00:06:27.402Z,32.60
2023-01-29T00:11:25.389Z,46.28
2023-01-29T00:16:21.828Z,34.83
2023-01-29T00:21:20.148Z,32.55
2023-01-29T00:26:17.244Z,31.55
2023-01-29T00:31:17.117Z,33.05
2023-01-29T00:36:16.035Z,34.05
2023-01-29T00:41:33.489Z,39.95
2023-01-29T00:46:29.880Z,31.42
2023-01-29T00:51:26.273Z,37.50
2023-01-29T00:56:22.661Z,32.20
2023-01-29T01:01:39.450Z,34.60
2023-01-29T01:06:40.775Z,31.15
2023-01-29T01:11:37.518Z,28.30
2023-01-29T01:16:34.084Z,31.70
2023-01-29T01:21:30.613Z,32.53
2023-01-29T01:26:27.156Z,31.60
2023-01-29T01:31:23.951Z,30.58
2023-01-29T01:36:20.416Z,30.58
2023-01-29T01:41:20.218Z,30.75
2023-01-29T01:46:16.890Z,27.20
2023-01-29T01:51:14.627Z,30.88
2023-01-29T01:56:16.284Z,32.42
2023-01-29T02:01:13.831Z,32.23
2023-01-29T02:06:29.938Z,31.30
2023-01-29T02:11:26.355Z,24.90
2023-01-29T02:16:23.591Z,31.23
2023-01-29T02:21:40.592Z,25.90
2023-01-29T02:26:49.060Z,28.48
2023-01-29T02:31:55.961Z,27.67
2023-01-29T02:37:04.647Z,24.00
2023-01-29T02:42:13.221Z,35.33
2023-01-29T02:47:18.818Z,27.27
2023-01-29T02:52:17.750Z,28.80
2023-01-29T02:57:30.519Z,29.13
2023-01-29T03:02:43.006Z,29.70
2023-01-29T03:07:45.947Z,29.45
2023-01-29T03:12:44.113Z,28.90
2023-01-29T03:17:51.999Z,31.67
2023-01-29T03:22:55.738Z,30.60
2023-01-29T03:28:15.895Z,29.75
2023-01-29T03:33:17.152Z,28.73
2023-01-29T03:38:13.917Z,27.40
2023-01-29T03:43:13.298Z,28.55
2023-01-29T03:48:29.050Z,28.20
2023-01-29T03:53:51.538Z,28.42
2023-01-29T03:58:59.167Z,26.37
2023-01-29T04:04:03.128Z,29.63
2023-01-29T04:09:20.193Z,27.58
2023-01-29T04:14:17.567Z,27.52
2023-01-29T04:19:14.393Z,27.23
2023-01-29T04:24:12.940Z,25.08
2023-01-29T04:29:22.118Z,30.27
2023-01-29T04:34:25.258Z,28.98
2023-01-29T04:39:34.807Z,30.40
2023-01-29T04:45:03.398Z,34.13
2023-01-29T04:50:24.177Z,28.73
2023-01-29T04:55:38.892Z,29.27
2023-01-29T05:00:41.498Z,30.73
2023-01-29T05:05:42.650Z,32.00
2023-01-29T05:10:39.753Z,32.95
2023-01-29T05:15:43.843Z,31.23
2023-01-29T05:20:42.533Z,32.05
2023-01-29T05:25:38.981Z,36.05
2023-01-29T05:30:37.754Z,36.20
2023-01-29T05:35:34.723Z,31.63
2023-01-29T05:40:31.308Z,34.33
2023-01-29T05:45:27.735Z,32.83
2023-01-29T05:50:24.941Z,33.90
2023-01-29T05:55:21.320Z,36.20
2023-01-29T06:00:18.429Z,34.70
2023-01-29T06:05:15.141Z,35.80
2023-01-29T06:10:16.715Z,40.95
2023-01-29T06:15:15.502Z,34.85
2023-01-29T06:20:12.473Z,35.53
2023-01-29T06:25:09.216Z,33.65
2023-01-29T06:30:06.504Z,33.22
2023-01-29T06:35:03.017Z,33.20
2023-01-29T06:39:59.435Z,34.38
2023-01-29T06:44:56.574Z,35.10
2023-01-29T06:49:53.094Z,32.08
2023-01-29T06:54:49.464Z,34.55
2023-01-29T06:59:46.182Z,33.15
2023-01-29T07:04:42.678Z,33.15
2023-01-29T07:09:43.039Z,32.38
2023-01-29T07:14:39.420Z,35.45
2023-01-29T07:19:35.845Z,33.78
2023-01-29T07:24:32.680Z,33.83
2023-01-29T07:29:29.089Z,28.40
2023-01-29T07:34:25.514Z,31.77
2023-01-29T07:39:22.018Z,32.33
2023-01-29T07:44:18.405Z,31.58
2023-01-29T07:49:15.242Z,32.80
2023-01-29T07:54:11.964Z,36.28
2023-01-29T07:59:08.375Z,34.67
2023-01-29T08:04:04.869Z,33.60
2023-01-29T08:09:01.452Z,37.90
2023-01-29T08:13:57.896Z,36.95
2023-01-29T08:18:55.264Z,36.15
2023-01-29T08:23:51.867Z,35.60
2023-01-29T08:28:48.306Z,42.22
2023-01-29T08:33:44.776Z,33.88
2023-01-29T08:38:41.553Z,42.50
2023-01-29T08:43:38.559Z,39.58
2023-01-29T08:48:36.086Z,41.35
2023-01-29T08:53:33.192Z,42.53
2023-01-29T08:58:29.684Z,44.13
2023-01-29T09:03:26.119Z,52.85
2023-01-29T09:08:22.620Z,51.60
2023-01-29T09:13:19.026Z,56.65
2023-01-29T09:18:15.459Z,54.28
2023-01-29T09:23:12.062Z,53.95
2023-01-29T09:28:08.590Z,62.20
2023-01-29T09:33:06.034Z,55.13
2023-01-29T09:38:02.416Z,56.60
2023-01-29T09:43:04.423Z,51.67
2023-01-29T09:48:03.819Z,57.42
2023-01-29T09:53:15.111Z,50.60
2023-01-29T09:58:22.788Z,59.65
2023-01-29T10:03:37.479Z,57.20
2023-01-29T10:09:04.516Z,54.47
2023-01-29T10:14:55.486Z,60.92
2023-01-29T10:20:06.812Z,64.32
2023-01-29T10:25:13.289Z,63.83
2023-01-29T10:30:35.389Z,68.13
2023-01-29T10:35:44.276Z,64.70
2023-01-29T10:41:08.535Z,66.57
2023-01-29T10:46:29.993Z,63.55
2023-01-29T10:51:48.363Z,59.90
2023-01-29T10:56:59.557Z,69.20
2023-01-29T11:02:00.181Z,70.35
2023-01-29T11:06:56.914Z,66.28
2023-01-29T11:11:59.200Z,59.03
2023-01-29T11:16:55.803Z,56.95
2023-01-29T11:21:59.858Z,59.38
2023-01-29T11:26:59.320Z,51.78
2023-01-29T11:31:57.515Z,50.35
2023-01-29T11:37:03.361Z,50.97
2023-01-29T11:42:03.627Z,53.22
2023-01-29T11:47:14.223Z,50.00
2023-01-29T11:52:11.600Z,48.63
2023-01-29T11:57:32.267Z,47.28
2023-01-29T12:02:36.938Z,46.78
2023-01-29T12:07:34.766Z,49.42
2023-01-29T12:12:41.552Z,44.28
2023-01-29T12:17:39.921Z,43.00
2023-01-29T12:22:42.082Z,47.55
2023-01-29T12:27:47.970Z,47.17
2023-01-29T12:33:01.310Z,44.85
2023-01-29T12:38:22.341Z,44.53
2023-01-29T12:43:27.649Z,49.90
2023-01-29T12:48:32.904Z,50.72
2023-01-29T12:53:43.182Z,49.35
2023-01-29T12:58:47.063Z,47.17
2023-01-29T13:03:59.329Z,52.45
2023-01-29T13:08:59.848Z,43.23
2023-01-29T13:14:04.551Z,48.63
2023-01-29T13:19:14.916Z,42.95
2023-01-29T13:24:15.751Z,39.22
2023-01-29T13:29:24.628Z,38.30
2023-01-29T13:34:31.576Z,42.38
2023-01-29T13:39:34.298Z,36.40
2023-01-29T13:44:37.746Z,39.17
2023-01-29T13:49:36.717Z,38.28
2023-01-29T13:54:33.165Z,42.95
2023-01-29T13:59:55.083Z,37.08
2023-01-29T14:04:52.049Z,42.45
2023-01-29T14:09:48.374Z,43.53
2023-01-29T14:14:47.669Z,58.65
2023-01-29T14:19:50.548Z,49.33
2023-01-29T14:24:47.978Z,46.13
2023-01-29T14:29:44.425Z,44.80
2023-01-29T14:34:51.833Z,46.55
2023-01-29T14:39:55.232Z,47.45
2023-01-29T14:44:54.306Z,46.50
2023-01-29T14:49:53.763Z,40.80
2023-01-29T14:54:52.318Z,39.95
2023-01-29T14:59:55.587Z,42.17
2023-01-29T15:04:58.636Z,46.53
2023-01-29T15:10:47.760Z,43.47
2023-01-29T15:15:52.410Z,48.20
2023-01-29T15:20:48.984Z,47.47
2023-01-29T15:25:51.020Z,46.95
2023-01-29T15:30:54.062Z,46.03
2023-01-29T15:36:06.874Z,42.53
2023-01-29T15:41:15.953Z,48.40
2023-01-29T15:46:24.953Z,47.30
2023-01-29T15:51:25.166Z,51.67
2023-01-29T15:56:28.042Z,47.00
2023-01-29T16:01:28.530Z,47.92
2023-01-29T16:06:25.208Z,47.35
2023-01-29T16:11:22.004Z,47.25
2023-01-29T16:16:25.192Z,46.40
2023-01-29T16:21:36.453Z,45.05
2023-01-29T16:26:36.264Z,43.47
2023-01-29T16:31:33.581Z,51.97
2023-01-29T16:36:30.471Z,47.13
2023-01-29T16:41:33.411Z,49.00
2023-01-29T16:46:38.064Z,41.80
2023-01-29T16:51:39.190Z,43.97
2023-01-29T16:56:37.879Z,40.47
2023-01-29T17:01:36.395Z,45.42
2023-01-29T17:06:33.980Z,44.72
2023-01-29T17:11:35.689Z,41.63
2023-01-29T17:16:35.222Z,42.97
2023-01-29T17:21:31.921Z,42.35
2023-01-29T17:26:31.048Z,42.88
2023-01-29T17:31:27.665Z,41.75
2023-01-29T17:36:24.221Z,36.28
2023-01-29T17:41:30.008Z,40.40
2023-01-29T17:46:27.387Z,39.72
2023-01-29T17:51:25.139Z,42.72
2023-01-29T17:56:27.957Z,38.78
2023-01-29T18:01:24.418Z,41.17
2023-01-29T18:06:28.917Z,45.97
2023-01-29T18:11:25.704Z,43.60
2023-01-29T18:16:23.089Z,41.53
2023-01-29T18:21:19.501Z,39.63
2023-01-29T18:26:16.681Z,41.00
2023-01-29T18:31:14.366Z,44.53
2023-01-29T18:36:11.194Z,44.05
2023-01-29T18:41:12.684Z,39.30
2023-01-29T18:46:09.554Z,43.95
2023-01-29T18:51:06.079Z,44.10
2023-01-29T18:56:05.454Z,42.20
2023-01-29T19:01:06.850Z,43.97
2023-01-29T19:06:04.741Z,45.72
2023-01-29T19:11:03.799Z,53.78
2023-01-29T19:16:00.818Z,48.67
2023-01-29T19:20:57.653Z,52.47
2023-01-29T19:25:57.815Z,55.17
2023-01-29T19:30:57.980Z,52.30
2023-01-29T19:36:01.211Z,57.90
2023-01-29T19:40:59.221Z,66.07
2023-01-29T19:45:58.677Z,62.00
2023-01-29T19:51:04.151Z,60.50
2023-01-29T19:56:09.525Z,66.78
2023-01-29T20:01:12.558Z,66.38
2023-01-29T20:06:09.230Z,65.30
2023-01-29T20:11:05.718Z,66.57
2023-01-29T20:16:03.819Z,69.38
2023-01-29T20:21:16.983Z,70.22
2023-01-29T20:26:15.728Z,73.18
2023-01-29T20:31:12.428Z,72.45
2023-01-29T20:36:10.954Z,82.70
2023-01-29T20:41:08.628Z,73.50
2023-01-29T20:46:05.409Z,69.05
2023-01-29T20:51:12.353Z,77.47
2023-01-29T20:56:09.770Z,71.55
2023-01-29T21:01:12.842Z,66.45
2023-01-29T21:06:10.715Z,65.40
2023-01-29T21:11:09.084Z,72.28
2023-01-29T21:16:06.117Z,74.25
2023-01-29T21:21:02.731Z,74.13
2023-01-29T21:26:04.042Z,70.72
2023-01-29T21:31:05.676Z,70.88
2023-01-29T21:36:02.346Z,67.50
2023-01-29T21:41:07.008Z,61.67
2023-01-29T21:46:05.914Z,61.63
2023-01-29T21:51:02.705Z,68.00
2023-01-29T21:56:04.477Z,65.95
2023-01-29T22:01:35.549Z,67.30
2023-01-29T22:06:17.463Z,68.32
2023-01-29T22:11:13.989Z,68.95
2023-01-29T22:16:10.364Z,70.88
2023-01-29T22:21:06.780Z,69.43
2023-01-29T22:26:05.244Z,82.57
2023-01-29T22:31:02.654Z,71.95
2023-01-29T22:35:59.641Z,79.97
2023-01-29T22:40:57.112Z,71.82
2023-01-29T22:45:53.569Z,76.65
2023-01-29T22:51:09.149Z,69.60
2023-01-29T22:56:06.590Z,69.07
2023-01-29T23:01:03.874Z,63.90
2023-01-29T23:06:00.701Z,57.75
2023-01-29T23:11:13.654Z,63.95
2023-01-29T23:21:06.642Z,62.60
2023-01-29T23:26:23.559Z,60.10
2023-01-29T23:31:20.017Z,61.75
2023-01-29T23:36:17.004Z,49.03
2023-01-29T23:41:13.820Z,55.63
2023-01-29T23:46:10.494Z,57.80
2023-01-29T23:51:06.931Z,58.65
2023-01-29T23:56:05.356Z,58.00
